createdAt,value
2018-03-22T00:01:00.701Z,18.95
2018-03-22T00:02:03.929Z,17.87
2018-03-22T00:03:07.175Z,18.62
2018-03-22T00:04:10.394Z,17.48
2018-03-22T00:05:13.768Z,19.95
2018-03-22T00:06:16.991Z,18.98
2018-03-22T00:07:21.020Z,18.25
2018-03-22T00:08:24.250Z,17.25
2018-03-22T00:09:27.514Z,18.75
2018-03-22T00:10:30.737Z,21.08
2018-03-22T00:11:34.812Z,18.92
2018-03-22T00:12:38.032Z,17.67
2018-03-22T00:13:41.262Z,19.17
2018-03-22T00:14:44.582Z,18.33
2018-03-22T00:15:47.806Z,16.95
2018-03-22T00:16:51.080Z,21.87
2018-03-22T00:17:54.317Z,22.10
2018-03-22T00:18:57.570Z,21.17
2018-03-22T00:20:00.838Z,20.30
2018-03-22T00:21:04.808Z,18.17
2018-03-22T00:22:18.639Z,19.52
2018-03-22T00:23:22.653Z,18.10
2018-03-22T00:24:25.893Z,18.90
2018-03-22T00:25:29.132Z,19.15
2018-03-22T00:26:32.350Z,16.60
2018-03-22T00:27:35.571Z,17.30
2018-03-22T00:28:39.609Z,19.12
2018-03-22T00:29:42.837Z,17.52
2018-03-22T00:30:46.070Z,18.35
2018-03-22T00:31:49.348Z,18.80
2018-03-22T00:32:52.587Z,18.70
2018-03-22T00:33:55.821Z,18.52
2018-03-22T00:34:59.125Z,17.37
2018-03-22T00:36:02.389Z,20.90
2018-03-22T00:37:05.652Z,17.33
2018-03-22T00:38:08.905Z,19.87
2018-03-22T00:39:12.922Z,19.55
2018-03-22T00:40:16.960Z,19.15
2018-03-22T00:41:20.200Z,19.65
2018-03-22T00:42:24.254Z,17.58
2018-03-22T00:43:27.513Z,17.80
2018-03-22T00:44:30.729Z,19.37
2018-03-22T00:45:34.030Z,18.30
2018-03-22T00:46:37.357Z,17.35
2018-03-22T00:47:40.662Z,18.62
2018-03-22T00:48:43.939Z,21.83
2018-03-22T00:49:47.155Z,17.67
2018-03-22T00:50:50.509Z,18.05
2018-03-22T00:51:53.719Z,19.80
2018-03-22T00:52:56.982Z,19.48
2018-03-22T00:54:00.370Z,17.00
2018-03-22T00:55:03.666Z,18.10
2018-03-22T00:56:06.925Z,17.80
2018-03-22T00:57:10.152Z,17.00
2018-03-22T00:58:13.389Z,16.60
2018-03-22T00:59:16.625Z,16.50
2018-03-22T01:00:19.862Z,18.50
2018-03-22T01:01:23.161Z,16.45
2018-03-22T01:02:26.397Z,16.05
2018-03-22T01:03:30.386Z,18.33
2018-03-22T01:04:34.380Z,17.83
2018-03-22T01:05:37.616Z,18.33
2018-03-22T01:06:40.839Z,18.50
2018-03-22T01:07:44.061Z,17.37
2018-03-22T01:08:47.286Z,18.50
2018-03-22T01:09:50.523Z,16.50
2018-03-22T01:10:54.523Z,17.80
2018-03-22T01:11:58.519Z,16.27
2018-03-22T01:13:01.770Z,17.52
2018-03-22T01:14:04.994Z,17.45
2018-03-22T01:15:08.222Z,18.20
2018-03-22T01:16:11.460Z,18.35
2018-03-22T01:17:14.690Z,16.95
2018-03-22T01:18:17.925Z,20.20
2018-03-22T01:19:21.167Z,17.98
2018-03-22T01:20:24.404Z,18.30
2018-03-22T01:21:27.617Z,15.80
2018-03-22T01:22:30.837Z,15.93
2018-03-22T01:23:34.834Z,16.12
2018-03-22T01:24:38.844Z,15.93
2018-03-22T01:25:42.816Z,16.55
2018-03-22T01:26:46.068Z,16.10
2018-03-22T01:27:49.301Z,15.88
2018-03-22T01:28:52.531Z,21.02
2018-03-22T01:29:55.758Z,16.77
2018-03-22T01:30:59.259Z,16.50
2018-03-22T01:32:02.469Z,16.87
2018-03-22T01:33:05.734Z,18.15
2018-03-22T01:34:08.987Z,17.73
2018-03-22T01:35:12.198Z,15.82
2018-03-22T01:36:16.222Z,18.48
2018-03-22T01:37:19.512Z,22.25
2018-03-22T01:38:23.646Z,18.15
2018-03-22T01:39:26.898Z,16.95
2018-03-22T01:40:30.182Z,15.48
2018-03-22T01:41:33.418Z,16.42
2018-03-22T01:42:37.573Z,17.25
2018-03-22T01:43:40.798Z,16.70
2018-03-22T01:44:44.034Z,18.05
2018-03-22T01:45:47.295Z,16.87
2018-03-22T01:46:50.544Z,19.20
2018-03-22T01:47:53.772Z,18.05
2018-03-22T01:48:57.171Z,18.23
2018-03-22T01:50:00.409Z,16.15
2018-03-22T01:51:03.625Z,16.65
2018-03-22T01:52:06.862Z,16.85
2018-03-22T01:53:14.787Z,16.45
2018-03-22T01:54:18.838Z,16.95
2018-03-22T01:55:22.049Z,16.50
2018-03-22T01:56:25.381Z,18.52
2018-03-22T01:57:28.628Z,18.27
2018-03-22T01:58:32.606Z,19.05
2018-03-22T01:59:35.835Z,19.10
2018-03-22T02:00:39.617Z,16.65
2018-03-22T02:01:43.626Z,16.35
2018-03-22T02:02:46.857Z,15.75
2018-03-22T02:03:50.152Z,16.98
2018-03-22T02:04:53.377Z,16.23
2018-03-22T02:05:56.620Z,15.60
2018-03-22T02:06:59.836Z,16.00
2018-03-22T02:08:03.095Z,15.75
2018-03-22T02:09:06.422Z,17.27
2018-03-22T02:10:10.413Z,15.23
2018-03-22T02:11:14.406Z,14.13
2018-03-22T02:12:17.627Z,17.00
2018-03-22T02:13:20.840Z,17.05
2018-03-22T02:14:24.158Z,17.40
2018-03-22T02:15:28.155Z,18.62
2018-03-22T02:16:31.365Z,15.85
2018-03-22T02:17:34.608Z,18.02
2018-03-22T02:18:38.644Z,15.57
2018-03-22T02:19:41.911Z,14.05
2018-03-22T02:20:45.152Z,16.23
2018-03-22T02:21:48.389Z,15.70
2018-03-22T02:22:51.862Z,14.18
2018-03-22T02:23:55.930Z,16.45
2018-03-22T02:25:00.794Z,14.57
2018-03-22T02:26:04.128Z,14.95
2018-03-22T02:27:07.366Z,16.15
2018-03-22T02:28:10.625Z,15.70
2018-03-22T02:29:14.618Z,17.90
2018-03-22T02:30:18.797Z,16.58
2018-03-22T02:31:22.035Z,14.82
2018-03-22T02:32:25.354Z,15.40
2018-03-22T02:33:28.595Z,19.02
2018-03-22T02:34:31.861Z,16.05
2018-03-22T02:35:35.852Z,16.65
2018-03-22T02:36:39.217Z,19.45
2018-03-22T02:37:42.427Z,15.27
2018-03-22T02:38:46.427Z,18.15
2018-03-22T02:39:50.420Z,18.62
2018-03-22T02:40:53.638Z,16.40
2018-03-22T02:41:56.870Z,15.93
2018-03-22T02:43:00.143Z,18.00
2018-03-22T02:44:03.423Z,17.83
2018-03-22T02:45:06.641Z,16.55
2018-03-22T02:46:10.934Z,15.15
2018-03-22T02:47:14.175Z,17.30
2018-03-22T02:48:17.396Z,15.00
2018-03-22T02:49:20.627Z,15.43
2018-03-22T02:50:23.920Z,16.83
2018-03-22T02:51:27.138Z,15.75
2018-03-22T02:52:30.357Z,16.05
2018-03-22T02:53:34.342Z,15.80
2018-03-22T02:54:38.362Z,16.20
2018-03-22T02:55:41.567Z,16.55
2018-03-22T02:56:44.827Z,15.00
2018-03-22T02:57:48.830Z,14.80
2018-03-22T02:58:52.842Z,14.75
2018-03-22T02:59:56.074Z,15.35
2018-03-22T03:00:59.381Z,16.30
2018-03-22T03:02:02.700Z,13.10
2018-03-22T03:03:05.922Z,14.43
2018-03-22T03:04:09.153Z,15.70
2018-03-22T03:05:12.401Z,13.25
2018-03-22T03:06:15.768Z,16.08
2018-03-22T03:07:19.008Z,15.77
2018-03-22T03:08:22.295Z,13.57
2018-03-22T03:09:25.569Z,15.02
2018-03-22T03:10:29.570Z,15.57
2018-03-22T03:11:32.815Z,15.68
2018-03-22T03:12:36.040Z,19.90
2018-03-22T03:13:39.276Z,17.12
2018-03-22T03:14:42.556Z,15.70
2018-03-22T03:15:45.854Z,13.88
2018-03-22T03:16:49.072Z,17.08
2018-03-22T03:17:52.313Z,16.80
2018-03-22T03:18:55.646Z,16.70
2018-03-22T03:19:58.873Z,13.85
2018-03-22T03:21:02.116Z,17.60
2018-03-22T03:22:05.356Z,18.65
2018-03-22T03:23:10.117Z,13.93
2018-03-22T03:24:13.345Z,14.48
2018-03-22T03:25:16.601Z,12.57
2018-03-22T03:26:19.820Z,16.60
2018-03-22T03:27:23.046Z,16.87
2018-03-22T03:28:26.293Z,17.90
2018-03-22T03:29:29.538Z,16.00
2018-03-22T03:30:32.771Z,14.40
2018-03-22T03:31:36.805Z,13.52
2018-03-22T03:32:40.029Z,14.15
2018-03-22T03:33:43.252Z,14.65
2018-03-22T03:34:46.583Z,13.70
2018-03-22T03:35:49.815Z,16.20
2018-03-22T03:36:53.116Z,14.68
2018-03-22T03:37:56.390Z,14.82
2018-03-22T03:38:59.617Z,13.95
2018-03-22T03:40:02.845Z,15.68
2018-03-22T03:41:06.068Z,13.30
2018-03-22T03:42:09.302Z,14.57
2018-03-22T03:43:13.299Z,14.38
2018-03-22T03:44:17.302Z,13.52
2018-03-22T03:45:21.320Z,17.92
2018-03-22T03:46:25.416Z,15.70
2018-03-22T03:47:29.439Z,12.23
2018-03-22T03:48:32.701Z,12.45
2018-03-22T03:49:35.941Z,13.60
2018-03-22T03:50:39.147Z,18.42
2018-03-22T03:51:43.154Z,13.25
2018-03-22T03:52:46.417Z,14.18
2018-03-22T03:53:49.639Z,16.33
2018-03-22T03:54:52.902Z,14.23
2018-03-22T03:55:56.939Z,15.50
2018-03-22T03:57:00.162Z,13.45
2018-03-22T03:58:03.390Z,14.00
2018-03-22T03:59:06.632Z,14.07
2018-03-22T04:00:09.857Z,13.30
2018-03-22T04:01:13.094Z,20.15
2018-03-22T04:02:16.341Z,14.07
2018-03-22T04:03:19.632Z,14.98
2018-03-22T04:04:22.864Z,13.73
2018-03-22T04:05:26.204Z,16.05
2018-03-22T04:06:29.465Z,14.80
2018-03-22T04:07:32.739Z,13.40
2018-03-22T04:08:36.037Z,14.77
2018-03-22T04:09:39.342Z,14.40
2018-03-22T04:10:42.599Z,14.40
2018-03-22T04:11:47.822Z,15.27
2018-03-22T04:12:51.878Z,14.32
2018-03-22T04:13:55.128Z,14.18
2018-03-22T04:14:58.375Z,14.25
2018-03-22T04:16:02.390Z,14.43
2018-03-22T04:17:05.630Z,13.32
2018-03-22T04:18:08.909Z,13.27
2018-03-22T04:19:12.166Z,13.68
2018-03-22T04:20:17.545Z,14.77
2018-03-22T04:21:20.774Z,14.15
2018-03-22T04:22:24.018Z,14.25
2018-03-22T04:23:28.039Z,13.65
2018-03-22T04:24:31.293Z,14.70
2018-03-22T04:25:35.305Z,18.60
2018-03-22T04:26:39.315Z,15.38
2018-03-22T04:27:42.545Z,15.68
2018-03-22T04:28:45.809Z,13.77
2018-03-22T04:29:49.049Z,15.15
2018-03-22T04:30:53.050Z,14.00
2018-03-22T04:31:57.225Z,17.10
2018-03-22T04:33:00.415Z,14.68
2018-03-22T04:34:03.628Z,13.07
2018-03-22T04:35:06.888Z,13.95
2018-03-22T04:36:10.111Z,14.25
2018-03-22T04:37:13.334Z,14.77
2018-03-22T04:38:16.559Z,14.13
2018-03-22T04:39:20.541Z,16.75
2018-03-22T04:40:23.930Z,15.05
2018-03-22T04:41:27.160Z,13.65
2018-03-22T04:42:30.423Z,14.73
2018-03-22T04:43:33.703Z,19.40
2018-03-22T04:44:36.935Z,16.92
2018-03-22T04:45:40.158Z,13.65
2018-03-22T04:46:44.234Z,13.90
2018-03-22T04:47:47.575Z,16.95
2018-03-22T04:48:50.803Z,14.48
2018-03-22T04:49:54.032Z,14.38
2018-03-22T04:50:57.273Z,15.02
2018-03-22T04:52:00.505Z,14.63
2018-03-22T04:53:03.836Z,14.13
2018-03-22T04:54:07.086Z,13.82
2018-03-22T04:55:10.323Z,16.77
2018-03-22T04:56:14.353Z,14.25
2018-03-22T04:57:17.587Z,14.48
2018-03-22T04:58:20.820Z,14.05
2018-03-22T04:59:24.072Z,19.42
2018-03-22T05:00:28.067Z,14.80
2018-03-22T05:01:31.304Z,15.73
2018-03-22T05:02:34.531Z,17.05
2018-03-22T05:03:38.577Z,14.10
2018-03-22T05:04:41.862Z,16.02
2018-03-22T05:05:45.094Z,13.70
2018-03-22T05:06:48.337Z,14.02
2018-03-22T05:07:51.560Z,16.20
2018-03-22T05:08:54.802Z,15.13
2018-03-22T05:09:58.039Z,15.60
2018-03-22T05:11:01.273Z,15.57
2018-03-22T05:12:04.536Z,16.67
2018-03-22T05:13:07.772Z,17.55
2018-03-22T05:14:11.024Z,16.60
2018-03-22T05:15:14.235Z,15.23
2018-03-22T05:16:17.479Z,15.45
2018-03-22T05:17:20.692Z,15.27
2018-03-22T05:18:23.929Z,16.08
2018-03-22T05:19:27.240Z,16.73
2018-03-22T05:20:30.472Z,15.20
2018-03-22T05:21:33.728Z,15.15
2018-03-22T05:22:37.033Z,15.88
2018-03-22T05:23:41.005Z,14.48
2018-03-22T05:24:44.232Z,14.27
2018-03-22T05:25:47.475Z,14.07
2018-03-22T05:26:50.740Z,15.88
2018-03-22T05:27:53.994Z,16.25
2018-03-22T05:28:57.238Z,12.80
2018-03-22T05:30:01.206Z,16.58
2018-03-22T05:31:04.491Z,14.82
2018-03-22T05:32:07.706Z,15.95
2018-03-22T05:33:11.702Z,16.70
2018-03-22T05:34:15.686Z,11.35
2018-03-22T05:35:19.063Z,16.33
2018-03-22T05:36:22.260Z,16.50
2018-03-22T05:37:25.548Z,14.98
2018-03-22T05:38:28.764Z,16.87
2018-03-22T05:39:32.750Z,13.20
2018-03-22T05:40:36.772Z,16.75
2018-03-22T05:41:40.003Z,13.95
2018-03-22T05:42:43.245Z,21.77
2018-03-22T05:43:46.468Z,18.80
2018-03-22T05:44:49.728Z,15.52
2018-03-22T05:45:52.956Z,17.92
2018-03-22T05:46:57.045Z,16.80
2018-03-22T05:48:00.288Z,13.10
2018-03-22T05:49:03.531Z,16.80
2018-03-22T05:50:07.617Z,13.75
2018-03-22T05:51:10.836Z,15.30
2018-03-22T05:52:14.072Z,13.50
2018-03-22T05:53:18.800Z,16.62
2018-03-22T05:54:23.560Z,14.32
2018-03-22T05:55:26.793Z,13.18
2018-03-22T05:56:30.033Z,18.23
2018-03-22T05:57:33.274Z,13.75
2018-03-22T05:58:37.268Z,16.42
2018-03-22T05:59:40.527Z,16.12
2018-03-22T06:00:43.772Z,16.58
2018-03-22T06:01:47.150Z,13.95
2018-03-22T06:02:50.395Z,14.23
2018-03-22T06:03:53.625Z,16.17
2018-03-22T06:04:56.864Z,12.55
2018-03-22T06:06:00.131Z,14.45
2018-03-22T06:07:03.355Z,14.63
2018-03-22T06:08:07.355Z,14.98
2018-03-22T06:09:10.603Z,13.02
2018-03-22T06:10:13.825Z,13.30
2018-03-22T06:11:17.815Z,14.27
2018-03-22T06:12:21.869Z,13.40
2018-03-22T06:13:25.146Z,14.25
2018-03-22T06:14:28.537Z,14.75
2018-03-22T06:15:31.828Z,12.45
2018-03-22T06:16:35.040Z,16.05
2018-03-22T06:17:39.034Z,11.88
2018-03-22T06:18:42.311Z,14.95
2018-03-22T06:19:45.637Z,13.88
2018-03-22T06:20:49.655Z,14.07
2018-03-22T06:21:52.904Z,17.73
2018-03-22T06:22:56.906Z,15.68
2018-03-22T06:24:00.883Z,14.15
2018-03-22T06:25:04.137Z,16.70
2018-03-22T06:26:07.358Z,12.98
2018-03-22T06:27:10.625Z,13.70
2018-03-22T06:28:13.857Z,13.70
2018-03-22T06:29:17.104Z,16.23
2018-03-22T06:30:20.336Z,14.27
2018-03-22T06:31:23.557Z,15.25
2018-03-22T06:32:26.796Z,14.73
2018-03-22T06:33:30.124Z,14.75
2018-03-22T06:34:33.397Z,13.75
2018-03-22T06:35:36.643Z,14.13
2018-03-22T06:36:39.874Z,14.10
2018-03-22T06:37:43.137Z,16.70
2018-03-22T06:38:46.358Z,12.48
2018-03-22T06:39:49.620Z,12.93
2018-03-22T06:40:53.067Z,13.80
2018-03-22T06:41:56.304Z,12.15
2018-03-22T06:42:59.630Z,14.02
2018-03-22T06:44:02.868Z,12.45
2018-03-22T06:45:06.118Z,16.95
2018-03-22T06:46:09.399Z,14.50
2018-03-22T06:47:12.682Z,10.85
2018-03-22T06:48:15.994Z,13.70
2018-03-22T06:49:19.218Z,12.68
2018-03-22T06:50:23.219Z,12.65
2018-03-22T06:51:27.220Z,14.87
2018-03-22T06:52:30.444Z,11.80
2018-03-22T06:53:33.705Z,15.52
2018-03-22T06:54:36.943Z,13.65
2018-03-22T06:55:40.202Z,15.07
2018-03-22T06:56:43.448Z,15.40
2018-03-22T06:57:46.681Z,13.45
2018-03-22T06:58:49.941Z,17.10
2018-03-22T06:59:53.175Z,14.85
2018-03-22T07:00:57.189Z,20.17
2018-03-22T07:02:01.201Z,17.12
2018-03-22T07:03:04.418Z,12.50
2018-03-22T07:04:07.658Z,14.50
2018-03-22T07:05:10.886Z,12.10
2018-03-22T07:06:14.119Z,14.23
2018-03-22T07:07:17.411Z,13.90
2018-03-22T07:08:20.624Z,11.70
2018-03-22T07:09:23.910Z,15.52
2018-03-22T07:10:27.149Z,14.23
2018-03-22T07:11:31.176Z,12.15
2018-03-22T07:12:34.454Z,14.07
2018-03-22T07:13:37.714Z,14.65
2018-03-22T07:14:41.706Z,14.07
2018-03-22T07:15:44.934Z,12.75
2018-03-22T07:16:48.170Z,21.08
2018-03-22T07:17:52.170Z,15.70
2018-03-22T07:18:56.161Z,13.75
2018-03-22T07:19:59.406Z,11.98
2018-03-22T07:21:02.610Z,18.33
2018-03-22T07:22:05.859Z,13.27
2018-03-22T07:23:09.098Z,17.45
2018-03-22T07:24:13.092Z,14.02
2018-03-22T07:25:16.339Z,12.20
2018-03-22T07:26:19.603Z,13.52
2018-03-22T07:27:22.824Z,17.27
2018-03-22T07:28:26.064Z,12.93
2018-03-22T07:29:29.345Z,13.98
2018-03-22T07:30:32.564Z,18.30
2018-03-22T07:31:35.818Z,16.70
2018-03-22T07:32:39.054Z,17.27
2018-03-22T07:33:42.290Z,13.00
2018-03-22T07:34:45.528Z,18.23
2018-03-22T07:35:49.520Z,15.35
2018-03-22T07:36:52.821Z,15.00
2018-03-22T07:37:56.017Z,13.13
2018-03-22T07:39:00.063Z,14.40
2018-03-22T07:40:03.284Z,14.45
2018-03-22T07:41:06.524Z,19.23
2018-03-22T07:42:09.764Z,15.98
2018-03-22T07:43:19.401Z,15.10
2018-03-22T07:44:29.224Z,14.23
2018-03-22T07:45:33.229Z,18.55
2018-03-22T07:46:36.469Z,13.40
2018-03-22T07:47:39.686Z,14.20
2018-03-22T07:48:42.962Z,15.18
2018-03-22T07:49:46.169Z,11.82
2018-03-22T07:50:49.406Z,16.67
2018-03-22T07:51:53.397Z,19.12
2018-03-22T07:52:57.422Z,17.15
2018-03-22T07:54:00.647Z,14.07
2018-03-22T07:55:03.887Z,14.60
2018-03-22T07:56:07.096Z,15.38
2018-03-22T07:57:10.375Z,11.95
2018-03-22T07:58:13.582Z,12.95
2018-03-22T07:59:16.816Z,13.85
2018-03-22T08:00:20.056Z,13.48
2018-03-22T08:01:23.375Z,12.55
2018-03-22T08:02:26.610Z,16.08
2018-03-22T08:03:29.950Z,22.85
2018-03-22T08:04:33.185Z,12.55
2018-03-22T08:05:36.435Z,13.20
2018-03-22T08:06:39.796Z,12.68
2018-03-22T08:07:43.760Z,13.68
2018-03-22T08:08:47.756Z,13.35
2018-03-22T08:09:50.986Z,16.75
2018-03-22T08:10:54.206Z,13.75
2018-03-22T08:11:57.429Z,14.27
2018-03-22T08:13:01.435Z,13.05
2018-03-22T08:14:05.441Z,15.57
2018-03-22T08:15:08.756Z,14.30
2018-03-22T08:16:12.024Z,13.27
2018-03-22T08:17:15.299Z,13.82
2018-03-22T08:18:18.528Z,14.25
2018-03-22T08:19:21.755Z,17.37
2018-03-22T08:20:25.052Z,16.70
2018-03-22T08:21:28.309Z,16.42
2018-03-22T08:22:32.325Z,12.93
2018-03-22T08:23:35.609Z,13.60
2018-03-22T08:24:39.614Z,12.37
2018-03-22T08:25:43.671Z,14.48
2018-03-22T08:26:46.894Z,12.37
2018-03-22T08:27:50.133Z,17.80
2018-03-22T08:28:53.408Z,12.60
2018-03-22T08:29:56.667Z,30.58
2018-03-22T08:30:59.889Z,13.10
2018-03-22T08:32:03.124Z,18.67
2018-03-22T08:33:06.349Z,16.60
2018-03-22T08:34:09.576Z,12.85
2018-03-22T08:35:12.812Z,13.27
2018-03-22T08:36:16.027Z,11.95
2018-03-22T08:37:20.030Z,12.35
2018-03-22T08:38:23.274Z,11.70
2018-03-22T08:39:26.498Z,10.48
2018-03-22T08:40:30.464Z,11.18
2018-03-22T08:41:33.717Z,10.70
2018-03-22T08:42:37.072Z,14.05
2018-03-22T08:43:40.292Z,14.43
2018-03-22T08:44:43.525Z,10.80
2018-03-22T08:45:47.497Z,11.02
2018-03-22T08:46:50.846Z,9.43
2018-03-22T08:47:54.054Z,11.32
2018-03-22T08:48:57.283Z,9.80
2018-03-22T08:50:01.277Z,10.88
2018-03-22T08:51:05.259Z,11.20
2018-03-22T08:52:08.485Z,11.25
2018-03-22T08:53:12.454Z,8.50
2018-03-22T08:54:15.665Z,9.70
2018-03-22T08:55:18.900Z,11.70
2018-03-22T08:56:22.123Z,11.77
2018-03-22T08:57:25.356Z,10.32
2018-03-22T08:58:28.582Z,11.63
2018-03-22T08:59:32.562Z,10.52
2018-03-22T09:00:36.595Z,12.37
2018-03-22T09:01:39.808Z,13.43
2018-03-22T09:02:43.070Z,10.68
2018-03-22T09:03:46.298Z,12.37
2018-03-22T09:04:49.529Z,10.13
2018-03-22T09:05:52.748Z,11.30
2018-03-22T09:06:56.014Z,10.93
2018-03-22T09:07:59.245Z,11.80
2018-03-22T09:09:02.473Z,10.73
2018-03-22T09:10:05.682Z,11.57
2018-03-22T09:11:08.898Z,11.23
2018-03-22T09:12:12.875Z,10.95
2018-03-22T09:13:16.133Z,12.00
2018-03-22T09:14:19.369Z,13.45
2018-03-22T09:15:22.596Z,10.48
2018-03-22T09:16:25.809Z,10.35
2018-03-22T09:17:29.045Z,11.55
2018-03-22T09:18:32.250Z,9.88
2018-03-22T09:19:35.452Z,11.40
2018-03-22T09:20:38.669Z,13.13
2018-03-22T09:21:42.663Z,10.57
2018-03-22T09:22:46.645Z,14.30
2018-03-22T09:23:49.885Z,10.05
2018-03-22T09:24:53.106Z,12.15
2018-03-22T09:25:56.326Z,12.93
2018-03-22T09:27:05.565Z,9.57
2018-03-22T09:28:08.786Z,11.10
2018-03-22T09:29:11.990Z,9.30
2018-03-22T09:30:15.990Z,10.73
2018-03-22T09:31:19.990Z,11.15
2018-03-22T09:32:23.324Z,9.98
2018-03-22T09:33:26.562Z,10.73
2018-03-22T09:34:29.780Z,10.15
2018-03-22T09:35:32.996Z,10.65
2018-03-22T09:36:36.233Z,10.63
2018-03-22T09:37:39.455Z,11.00
2018-03-22T09:38:42.676Z,10.63
2018-03-22T09:39:46.686Z,11.18
2018-03-22T09:40:50.663Z,11.25
2018-03-22T09:41:53.948Z,16.45
2018-03-22T09:42:57.129Z,10.40
2018-03-22T09:44:00.332Z,11.88
2018-03-22T09:45:04.358Z,13.52
2018-03-22T09:46:07.644Z,10.40
2018-03-22T09:47:10.898Z,11.18
2018-03-22T09:48:14.912Z,10.80
2018-03-22T09:49:18.121Z,13.23
2018-03-22T09:50:21.350Z,10.35
2018-03-22T09:51:25.330Z,10.40
2018-03-22T09:52:28.568Z,9.50
2018-03-22T09:53:31.842Z,14.85
2018-03-22T09:54:35.811Z,11.00
2018-03-22T09:55:39.044Z,10.60
2018-03-22T09:56:42.266Z,14.10
2018-03-22T09:57:45.508Z,12.57
2018-03-22T09:58:48.742Z,15.48
2018-03-22T09:59:51.980Z,12.50
2018-03-22T10:00:55.231Z,10.63
2018-03-22T10:01:59.213Z,12.52
2018-03-22T10:03:02.481Z,11.43
2018-03-22T10:04:05.720Z,15.13
2018-03-22T10:05:08.998Z,11.07
2018-03-22T10:06:12.968Z,9.48
2018-03-22T10:07:16.231Z,12.35
2018-03-22T10:08:19.494Z,11.38
2018-03-22T10:09:22.723Z,10.68
2018-03-22T10:10:25.943Z,10.07
2018-03-22T10:11:29.174Z,13.20
2018-03-22T10:12:32.414Z,11.40
2018-03-22T10:13:35.632Z,9.65
2018-03-22T10:14:38.883Z,10.90
2018-03-22T10:15:42.108Z,10.68
2018-03-22T10:16:45.330Z,10.18
2018-03-22T10:17:48.565Z,9.77
2018-03-22T10:18:51.809Z,9.40
2018-03-22T10:19:55.050Z,9.40
2018-03-22T10:20:58.387Z,10.95
2018-03-22T10:22:01.611Z,8.70
2018-03-22T10:23:04.922Z,9.82
2018-03-22T10:24:08.178Z,8.15
2018-03-22T10:25:11.400Z,12.73
2018-03-22T10:26:14.623Z,11.68
2018-03-22T10:27:17.806Z,11.73
2018-03-22T10:28:21.049Z,8.52
2018-03-22T10:29:24.263Z,8.63
2018-03-22T10:30:27.479Z,8.55
2018-03-22T10:31:30.703Z,9.73
2018-03-22T10:32:33.933Z,9.95
2018-03-22T10:33:37.141Z,10.25
2018-03-22T10:34:41.162Z,12.95
2018-03-22T10:35:45.124Z,8.73
2018-03-22T10:36:48.332Z,9.95
2018-03-22T10:37:51.564Z,9.38
2018-03-22T10:38:54.766Z,8.63
2018-03-22T10:39:57.989Z,8.85
2018-03-22T10:41:01.282Z,7.80
2018-03-22T10:42:04.544Z,8.88
2018-03-22T10:43:07.790Z,8.32
2018-03-22T10:44:11.021Z,8.38
2018-03-22T10:45:14.245Z,8.60
2018-03-22T10:46:17.475Z,7.35
2018-03-22T10:47:21.526Z,8.18
2018-03-22T10:48:24.880Z,8.77
2018-03-22T10:49:28.057Z,8.35
2018-03-22T10:50:31.288Z,10.57
2018-03-22T10:51:34.502Z,10.90
2018-03-22T10:52:38.490Z,6.60
2018-03-22T10:53:41.705Z,8.27
2018-03-22T10:54:44.940Z,9.85
2018-03-22T10:55:48.211Z,8.77
2018-03-22T10:56:51.388Z,8.02
2018-03-22T10:57:54.597Z,11.95
2018-03-22T10:58:57.805Z,8.02
2018-03-22T11:00:01.098Z,10.30
2018-03-22T11:01:10.074Z,8.60
2018-03-22T11:02:18.938Z,11.52
2018-03-22T11:03:26.986Z,9.00
2018-03-22T11:04:30.208Z,7.78
2018-03-22T11:05:33.425Z,8.35
2018-03-22T11:06:36.636Z,9.40
2018-03-22T11:07:39.851Z,9.05
2018-03-22T11:08:43.108Z,7.57
2018-03-22T11:09:46.323Z,8.60
2018-03-22T11:10:49.552Z,8.13
2018-03-22T11:11:52.781Z,9.70
2018-03-22T11:12:55.988Z,8.32
2018-03-22T11:13:59.200Z,7.95
2018-03-22T11:15:02.420Z,8.30
2018-03-22T11:16:06.399Z,8.70
2018-03-22T11:17:09.625Z,8.10
2018-03-22T11:18:12.832Z,8.68
2018-03-22T11:19:16.049Z,8.38
2018-03-22T11:20:19.361Z,8.75
2018-03-22T11:21:22.688Z,8.40
2018-03-22T11:22:25.870Z,12.52
2018-03-22T11:23:29.086Z,8.75
2018-03-22T11:24:32.316Z,8.52
2018-03-22T11:25:35.532Z,8.88
2018-03-22T11:26:38.756Z,9.32
2018-03-22T11:27:41.963Z,12.27
2018-03-22T11:28:45.186Z,15.65
2018-03-22T11:29:48.469Z,8.60
2018-03-22T11:30:51.681Z,10.15
2018-03-22T11:31:55.709Z,10.90
2018-03-22T11:32:58.977Z,11.82
2018-03-22T11:34:02.358Z,9.88
2018-03-22T11:35:05.569Z,8.40
2018-03-22T11:36:08.773Z,12.32
2018-03-22T11:37:12.042Z,10.80
2018-03-22T11:38:15.250Z,13.27
2018-03-22T11:39:18.469Z,7.57
2018-03-22T11:40:21.685Z,8.30
2018-03-22T11:41:24.902Z,8.73
2018-03-22T11:42:28.163Z,9.95
2018-03-22T11:43:31.359Z,7.80
2018-03-22T11:44:34.550Z,7.90
2018-03-22T11:45:37.760Z,8.60
2018-03-22T11:46:40.969Z,9.25
2018-03-22T11:47:44.212Z,9.05
2018-03-22T11:48:48.196Z,9.30
2018-03-22T11:49:51.410Z,8.60
2018-03-22T11:50:54.625Z,10.73
2018-03-22T11:51:57.916Z,7.82
2018-03-22T11:53:01.126Z,9.15
2018-03-22T11:54:04.351Z,10.00
2018-03-22T11:55:07.646Z,9.13
2018-03-22T11:56:11.592Z,9.13
2018-03-22T11:57:14.798Z,8.30
2018-03-22T11:58:18.779Z,9.70
2018-03-22T11:59:22.029Z,9.38
2018-03-22T12:00:25.243Z,10.38
2018-03-22T12:01:28.458Z,10.35
2018-03-22T12:02:31.669Z,8.70
2018-03-22T12:03:34.886Z,16.70
2018-03-22T12:04:38.200Z,8.82
2018-03-22T12:05:42.199Z,8.95
2018-03-22T12:06:46.333Z,10.98
2018-03-22T12:07:49.554Z,8.85
2018-03-22T12:08:52.781Z,10.18
2018-03-22T12:09:56.065Z,10.57
2018-03-22T12:10:59.345Z,12.00
2018-03-22T12:12:02.573Z,8.75
2018-03-22T12:13:05.838Z,8.75
2018-03-22T12:14:09.045Z,8.77
2018-03-22T12:15:12.312Z,7.55
2018-03-22T12:16:15.546Z,7.03
2018-03-22T12:17:19.577Z,7.80
2018-03-22T12:18:23.549Z,8.05
2018-03-22T12:19:27.551Z,9.35
2018-03-22T12:20:31.563Z,10.55
2018-03-22T12:21:35.630Z,9.50
2018-03-22T12:22:38.783Z,8.95
2018-03-22T12:23:42.012Z,8.45
2018-03-22T12:24:45.992Z,8.82
2018-03-22T12:25:49.208Z,9.50
2018-03-22T12:26:52.505Z,10.18
2018-03-22T12:27:55.737Z,8.70
2018-03-22T12:28:58.962Z,10.68
2018-03-22T12:30:02.240Z,9.85
2018-03-22T12:31:06.226Z,9.32
2018-03-22T12:32:10.205Z,8.55
2018-03-22T12:33:13.414Z,10.77
2018-03-22T12:34:17.399Z,9.00
2018-03-22T12:35:20.611Z,9.02
2018-03-22T12:36:23.830Z,8.73
2018-03-22T12:37:27.030Z,9.35
2018-03-22T12:38:30.262Z,10.98
2018-03-22T12:39:33.461Z,9.27
2018-03-22T12:40:36.746Z,10.65
2018-03-22T12:41:40.680Z,9.70
2018-03-22T12:42:43.913Z,9.52
2018-03-22T12:43:47.145Z,10.48
2018-03-22T12:44:50.376Z,10.30
2018-03-22T12:45:53.594Z,10.60
2018-03-22T12:46:56.839Z,12.18
2018-03-22T12:48:00.053Z,10.32
2018-03-22T12:49:03.317Z,8.43
2018-03-22T12:50:07.290Z,10.60
2018-03-22T12:51:11.295Z,10.13
2018-03-22T12:52:15.303Z,8.48
2018-03-22T12:53:18.506Z,8.75
2018-03-22T12:54:21.798Z,9.90
2018-03-22T12:55:25.071Z,11.05
2018-03-22T12:56:28.281Z,9.05
2018-03-22T12:57:31.506Z,8.48
2018-03-22T12:58:35.493Z,7.50
2018-03-22T12:59:38.713Z,8.73
2018-03-22T13:00:41.912Z,8.18
2018-03-22T13:01:45.670Z,10.52
2018-03-22T13:02:49.653Z,8.05
2018-03-22T13:03:53.627Z,7.15
2018-03-22T13:04:56.874Z,7.47
2018-03-22T13:06:00.070Z,7.62
2018-03-22T13:07:03.313Z,7.35
2018-03-22T13:08:07.305Z,7.37
2018-03-22T13:09:11.278Z,7.30
2018-03-22T13:10:14.501Z,6.20
2018-03-22T13:11:18.513Z,7.85
2018-03-22T13:12:21.798Z,5.80
2018-03-22T13:13:25.772Z,5.65
2018-03-22T13:14:28.999Z,7.37
2018-03-22T13:15:32.193Z,7.37
2018-03-22T13:16:35.413Z,5.85
2018-03-22T13:17:38.638Z,6.70
2018-03-22T13:18:41.886Z,6.45
2018-03-22T13:19:45.057Z,6.60
2018-03-22T13:20:48.276Z,7.68
2018-03-22T13:21:51.482Z,7.30
2018-03-22T13:22:54.692Z,7.97
2018-03-22T13:23:57.920Z,9.20
2018-03-22T13:25:01.196Z,8.13
2018-03-22T13:26:05.212Z,12.85
2018-03-22T13:27:09.169Z,7.37
2018-03-22T13:28:12.395Z,6.82
2018-03-22T13:29:15.599Z,6.82
2018-03-22T13:30:18.793Z,6.30
2018-03-22T13:31:22.020Z,6.28
2018-03-22T13:32:26.020Z,6.07
2018-03-22T13:33:30.032Z,6.35
2018-03-22T13:34:34.029Z,4.37
2018-03-22T13:35:38.023Z,5.68
2018-03-22T13:36:41.993Z,6.47
2018-03-22T13:37:45.221Z,7.20
2018-03-22T13:38:48.431Z,6.57
2018-03-22T13:39:51.651Z,5.55
2018-03-22T13:40:54.890Z,7.25
2018-03-22T13:41:58.090Z,5.82
2018-03-22T13:43:01.302Z,6.50